Latest METARs, TAFs and NOTAMs for MMPR


---------------------------------------------------------------------------
	(OBSERVATIONS)
MMPR 231945Z 21010KT 12SM  SKC 27/20 A2994 RMK CI-W DSNT CU-SE=
MMPR 231842Z 24009KT 12SM  SKC 28/19 A2996 RMK CI N-NE=
MMPR 231749Z 25007KT 12SM  SKC 28/19 A2996  RMK SLP143 57008
    953 HZY=
---------------------------------------------------------------------------
	(TERMINAL AREA FORECAST)
MMPR 231653Z 2318/2424 22006KT P6SM SCT250 TX29/2322Z
    TN17/2413Z
    BECMG 2320/2321 22012KT
    FM240200 00000KT P6SM SCT020 BKN250
    FM241200 03005KT P6SM BKN250
    BECMG 2419/2420 22012KT=
---------------------------------------------------------------------------
	(NOTAMS)


MMPR A0600/17 CD OPR FREQ 121.9 MHZ. 1600/2300 DLY, 27 JAN 16:54
    2017 UNTIL 01 APR 23:00 2017. CREATED: 27 JAN 16:56 2017

---------------------------------------------------------------------------